Time;durP1;ratioP1;P1;durP2;ratioP2;P2;SDS_P1;SDS_P2;PMS_P1;PMS_P2;Temp;Humidity;BMP_temperature;BMP_pressure;BME280_temperature;BME280_humidity;BME280_pressure;Samples;Min_cycle;Max_cycle;Signal;HPM_P1;HPM_P2
2022/05/08 00:00:02;;;;;;;1.90;1.90;;;21.80;59.70;;;;;;5039321;28;43972;-74
2022/05/08 00:02:40;;;;;;;2.03;2.03;;;21.80;59.80;;;;;;5037815;28;43864;-74
2022/05/08 00:05:09;;;;;;;2.00;2.00;;;21.80;59.80;;;;;;5045642;28;44864;-72
2022/05/08 00:07:37;;;;;;;2.30;2.20;;;21.80;59.70;;;;;;5045375;28;44203;-73
2022/05/08 00:10:08;;;;;;;2.20;2.20;;;21.80;59.80;;;;;;5045685;28;43981;-73
2022/05/08 00:12:36;;;;;;;2.00;2.00;;;21.80;59.80;;;;;;5045517;28;44066;-73
2022/05/08 00:15:06;;;;;;;2.07;2.07;;;21.70;59.80;;;;;;5045469;28;43978;-73
2022/05/08 00:17:35;;;;;;;1.97;1.97;;;21.70;59.80;;;;;;5045109;28;44020;-72
2022/05/08 00:20:07;;;;;;;2.00;2.00;;;21.80;59.70;;;;;;5047076;28;43850;-73
2022/05/08 00:22:35;;;;;;;2.00;2.00;;;21.70;60.00;;;;;;5049096;28;44072;-73
2022/05/08 00:25:03;;;;;;;2.13;2.10;;;21.70;59.90;;;;;;5049089;28;44328;-73
2022/05/08 00:27:33;;;;;;;1.90;1.90;;;21.70;60.00;;;;;;5048407;28;43965;-72
2022/05/08 00:30:01;;;;;;;2.03;2.03;;;21.70;59.80;;;;;;5049453;28;43837;-72
2022/05/08 00:32:30;;;;;;;2.13;2.13;;;21.70;60.00;;;;;;5049313;28;43804;-72
2022/05/08 00:34:58;;;;;;;2.10;2.10;;;21.70;60.10;;;;;;5030479;28;46116;-72
2022/05/08 00:37:25;;;;;;;2.10;2.10;;;21.60;60.10;;;;;;5048750;28;44021;-73
2022/05/08 00:39:54;;;;;;;2.00;2.00;;;21.60;60.10;;;;;;5048527;28;43913;-73
2022/05/08 00:42:22;;;;;;;1.90;1.90;;;21.60;59.90;;;;;;5049362;28;43395;-73
2022/05/08 00:44:51;;;;;;;2.00;2.00;;;21.60;60.10;;;;;;5048118;28;43945;-73
2022/05/08 00:47:19;;;;;;;2.30;2.30;;;21.60;60.20;;;;;;5048638;28;44100;-72
2022/05/08 00:49:46;;;;;;;2.00;2.00;;;21.60;60.00;;;;;;5046770;28;43929;-73
2022/05/08 00:52:14;;;;;;;2.27;2.17;;;21.60;60.10;;;;;;5030984;28;44124;-72
2022/05/08 00:54:42;;;;;;;2.20;2.20;;;21.60;60.00;;;;;;5048578;28;43876;-73
2022/05/08 00:57:10;;;;;;;2.20;2.20;;;21.50;60.20;;;;;;5046530;28;44872;-73
2022/05/08 00:59:38;;;;;;;2.20;2.20;;;21.50;60.00;;;;;;5048616;28;43898;-73
2022/05/08 01:02:07;;;;;;;2.20;2.20;;;21.60;60.20;;;;;;5048764;28;44060;-73
2022/05/08 01:04:35;;;;;;;2.10;2.10;;;21.50;60.30;;;;;;5047865;28;43902;-72
2022/05/08 01:07:04;;;;;;;2.03;2.03;;;21.50;60.40;;;;;;5048665;28;43372;-73
2022/05/08 01:09:32;;;;;;;2.00;2.00;;;21.50;60.20;;;;;;5047972;28;43959;-73
2022/05/08 01:12:00;;;;;;;2.20;2.20;;;21.50;60.20;;;;;;5048964;28;43959;-73
2022/05/08 01:14:28;;;;;;;2.07;2.07;;;21.50;61.10;;;;;;5029861;28;45716;-72
2022/05/08 01:16:56;;;;;;;2.40;2.30;;;21.50;60.50;;;;;;5048061;28;44003;-73
2022/05/08 01:19:25;;;;;;;2.30;2.30;;;21.50;60.50;;;;;;5048736;28;44239;-73
2022/05/08 01:21:55;;;;;;;1.93;1.93;;;21.50;60.10;;;;;;5048240;28;43925;-72
2022/05/08 01:24:24;;;;;;;2.10;2.10;;;21.50;60.50;;;;;;5048222;28;44074;-72
2022/05/08 01:26:53;;;;;;;2.03;2.03;;;21.50;60.10;;;;;;5028781;28;44734;-74
2022/05/08 01:29:21;;;;;;;2.10;2.10;;;21.50;60.40;;;;;;5029974;28;44052;-73
2022/05/08 01:31:49;;;;;;;2.20;2.10;;;21.40;60.50;;;;;;5047907;28;43991;-73
2022/05/08 01:34:17;;;;;;;2.20;2.20;;;21.40;60.00;;;;;;5047810;28;45103;-73
2022/05/08 01:36:45;;;;;;;2.20;2.20;;;21.40;60.60;;;;;;5047383;28;44131;-71
2022/05/08 01:39:14;;;;;;;2.33;2.30;;;21.40;60.60;;;;;;5048291;28;43393;-72
2022/05/08 01:41:46;;;;;;;2.10;2.10;;;21.40;60.30;;;;;;5047368;28;43932;-73
2022/05/08 01:44:23;;;;;;;2.20;2.20;;;21.40;60.40;;;;;;5045687;28;45320;-74
2022/05/08 01:48:21;;;;;;;2.10;2.10;;;21.40;60.00;;;;;;5047130;28;44472;-73
2022/05/08 01:49:38;;;;;;;2.27;2.27;;;21.40;60.40;;;;;;5047732;28;44012;-73
2022/05/08 01:52:07;;;;;;;2.07;2.07;;;21.40;60.70;;;;;;5047987;28;44266;-73
2022/05/08 01:54:36;;;;;;;2.20;2.20;;;21.40;60.50;;;;;;5047183;28;44100;-74
2022/05/08 01:57:04;;;;;;;2.13;2.13;;;21.40;60.40;;;;;;5048006;28;43947;-73
2022/05/08 01:59:32;;;;;;;2.20;2.20;;;21.40;60.70;;;;;;5047233;28;43874;-73
2022/05/08 02:02:00;;;;;;;2.20;2.20;;;21.40;60.70;;;;;;5046330;28;43998;-73
2022/05/08 02:04:29;;;;;;;2.20;2.20;;;21.40;60.00;;;;;;5047289;28;43849;-72
2022/05/08 02:06:58;;;;;;;2.13;2.13;;;21.40;60.60;;;;;;5047364;28;43945;-73
2022/05/08 02:09:26;;;;;;;2.17;2.17;;;21.40;60.10;;;;;;5047551;28;44045;-73
2022/05/08 02:11:55;;;;;;;2.30;2.30;;;21.40;60.40;;;;;;5046125;28;44037;-73
2022/05/08 02:14:24;;;;;;;1.93;1.93;;;21.40;60.80;;;;;;5047100;28;43969;-72
2022/05/08 02:16:52;;;;;;;2.00;2.00;;;21.40;60.30;;;;;;5028331;28;44934;-73
2022/05/08 02:19:20;;;;;;;2.10;2.10;;;21.40;60.60;;;;;;5047345;28;43878;-72
2022/05/08 02:21:50;;;;;;;2.23;2.23;;;21.40;61.00;;;;;;5047162;28;44133;-72
2022/05/08 02:24:18;;;;;;;2.40;2.40;;;21.30;60.50;;;;;;5047372;28;43959;-74
2022/05/08 02:26:46;;;;;;;2.23;2.23;;;21.30;60.20;;;;;;5046492;28;43917;-73
2022/05/08 02:29:15;;;;;;;1.90;1.90;;;21.30;60.10;;;;;;5047428;28;43389;-72
2022/05/08 02:31:43;;;;;;;2.10;2.10;;;21.30;60.40;;;;;;5029016;28;43970;-73
2022/05/08 02:34:11;;;;;;;2.33;2.33;;;21.30;60.40;;;;;;5046804;28;43874;-72
2022/05/08 02:36:39;;;;;;;2.10;2.10;;;21.30;60.50;;;;;;5046570;28;44034;-74
2022/05/08 02:39:07;;;;;;;2.20;2.20;;;21.30;60.20;;;;;;5047405;28;43946;-73
2022/05/08 02:41:35;;;;;;;2.10;2.10;;;21.30;60.20;;;;;;5046213;28;43948;-74
2022/05/08 02:44:09;;;;;;;2.30;2.30;;;21.30;60.40;;;;;;5046747;28;43955;-73
2022/05/08 02:46:38;;;;;;;2.10;2.10;;;21.30;60.20;;;;;;5046358;28;44036;-73
2022/05/08 02:49:09;;;;;;;2.40;2.30;;;21.30;60.10;;;;;;5047294;28;44072;-74
2022/05/08 02:51:37;;;;;;;2.37;2.37;;;21.30;60.20;;;;;;5046952;28;44024;-73
2022/05/08 02:54:05;;;;;;;2.30;2.30;;;21.20;60.20;;;;;;5047004;28;43992;-73
2022/05/08 02:59:18;;;;;;;2.33;2.23;;;21.20;60.20;;;;;;5016279;28;44087;-73
2022/05/08 03:01:47;;;;;;;2.20;2.20;;;21.20;60.20;;;;;;5028310;28;44033;-73
2022/05/08 03:04:17;;;;;;;2.27;2.27;;;21.20;60.20;;;;;;5046622;28;44834;-72
2022/05/08 03:06:45;;;;;;;2.20;2.20;;;21.20;60.40;;;;;;5045867;28;43916;-72
2022/05/08 03:09:13;;;;;;;2.27;2.27;;;21.20;60.30;;;;;;5047320;28;43999;-73
2022/05/08 03:11:41;;;;;;;2.13;2.13;;;21.20;60.30;;;;;;5046615;28;44104;-74
2022/05/08 03:14:09;;;;;;;2.20;2.20;;;21.20;60.20;;;;;;5046388;28;44044;-72
2022/05/08 03:16:40;;;;;;;2.40;2.40;;;21.20;60.40;;;;;;5045946;28;43445;-73
2022/05/08 03:19:10;;;;;;;1.90;1.90;;;21.10;61.00;;;;;;5046543;28;44004;-73
2022/05/08 03:21:38;;;;;;;2.43;2.33;;;21.00;62.10;;;;;;5046383;28;43917;-73
2022/05/08 03:24:06;;;;;;;2.30;2.30;;;20.90;62.70;;;;;;5027836;28;45753;-73
2022/05/08 03:26:34;;;;;;;1.93;1.93;;;20.80;62.90;;;;;;5044023;28;44930;-72
2022/05/08 03:29:03;;;;;;;2.20;2.20;;;20.70;63.30;;;;;;5046673;28;43928;-72
2022/05/08 03:31:32;;;;;;;2.20;2.20;;;20.70;63.50;;;;;;5046283;28;44006;-72
2022/05/08 03:34:03;;;;;;;2.40;2.40;;;20.60;63.70;;;;;;5027701;28;45517;-72
2022/05/08 03:36:33;;;;;;;2.10;2.10;;;20.60;63.80;;;;;;5044176;28;45131;-72
2022/05/08 03:39:00;;;;;;;2.17;2.17;;;20.60;64.00;;;;;;5046274;28;44005;-72
2022/05/08 03:41:28;;;;;;;2.20;2.20;;;20.50;64.00;;;;;;5046122;28;43953;-72
2022/05/08 03:43:59;;;;;;;2.10;2.10;;;20.50;64.10;;;;;;5046255;28;43993;-73
2022/05/08 03:46:32;;;;;;;2.20;2.20;;;20.50;64.30;;;;;;5045504;28;43914;-72
2022/05/08 03:49:01;;;;;;;2.20;2.20;;;20.50;64.40;;;;;;5046262;28;43856;-73
2022/05/08 03:51:29;;;;;;;2.33;2.33;;;20.40;64.40;;;;;;5046102;28;43507;-73
2022/05/08 03:53:59;;;;;;;2.13;2.13;;;20.40;64.00;;;;;;5044618;28;43833;-72
2022/05/08 03:56:27;;;;;;;2.30;2.30;;;20.40;63.60;;;;;;5045626;28;43997;-73
2022/05/08 03:58:55;;;;;;;2.13;2.13;;;20.50;63.60;;;;;;5026688;28;44247;-73
2022/05/08 04:01:24;;;;;;;2.20;2.20;;;20.70;63.40;;;;;;5046811;28;43807;-72
2022/05/08 04:03:52;;;;;;;2.10;2.10;;;20.90;63.00;;;;;;5046009;28;43952;-73
2022/05/08 04:06:20;;;;;;;2.10;2.10;;;21.10;62.30;;;;;;5046192;28;43959;-74
2022/05/08 04:08:52;;;;;;;2.13;2.13;;;21.30;61.50;;;;;;5046177;28;43996;-73
2022/05/08 04:11:22;;;;;;;2.00;2.00;;;21.60;60.80;;;;;;5046676;28;43992;-72
2022/05/08 04:13:49;;;;;;;2.27;2.27;;;21.80;60.20;;;;;;5046012;28;43897;-73
2022/05/08 04:16:16;;;;;;;2.10;2.10;;;22.00;59.70;;;;;;5045999;28;44048;-73
2022/05/08 04:18:45;;;;;;;2.13;2.13;;;22.20;59.20;;;;;;5046460;28;43453;-72
2022/05/08 04:21:13;;;;;;;2.20;2.20;;;22.40;58.90;;;;;;5046796;28;43396;-73
2022/05/08 04:26:29;;;;;;;1.90;1.90;;;22.70;58.10;;;;;;5040480;28;44059;-74
2022/05/08 04:28:57;;;;;;;1.80;1.80;;;22.80;57.80;;;;;;5045723;28;43985;-73
2022/05/08 04:31:25;;;;;;;2.17;2.17;;;22.80;57.60;;;;;;5046231;28;43787;-73
2022/05/08 04:33:53;;;;;;;1.80;1.80;;;22.80;57.50;;;;;;5045709;28;44118;-73
2022/05/08 04:36:21;;;;;;;2.13;2.13;;;22.90;57.50;;;;;;5027518;28;45365;-73
2022/05/08 04:38:48;;;;;;;2.07;2.07;;;22.90;57.50;;;;;;5045830;28;43898;-72
2022/05/08 04:41:17;;;;;;;2.03;2.03;;;22.90;57.40;;;;;;5046057;28;43889;-73
2022/05/08 04:43:48;;;;;;;1.93;1.93;;;22.90;57.20;;;;;;5045495;28;44679;-73
2022/05/08 04:46:15;;;;;;;2.23;2.23;;;22.90;57.80;;;;;;5045915;28;43481;-72
2022/05/08 04:48:43;;;;;;;2.00;2.00;;;23.00;57.20;;;;;;5045347;28;44015;-73
2022/05/08 04:51:12;;;;;;;2.20;2.20;;;23.00;57.00;;;;;;5046394;28;44074;-72
2022/05/08 04:53:39;;;;;;;1.90;1.90;;;23.00;56.90;;;;;;5045484;28;43933;-74
2022/05/08 04:56:07;;;;;;;2.23;2.23;;;23.10;57.50;;;;;;5045688;28;44087;-73
2022/05/08 04:58:36;;;;;;;1.93;1.93;;;23.10;56.80;;;;;;5045546;28;43968;-72
2022/05/08 05:01:05;;;;;;;2.10;2.10;;;23.10;56.80;;;;;;5046136;28;43443;-73
2022/05/08 05:03:33;;;;;;;2.03;2.03;;;23.10;56.70;;;;;;5045640;28;44712;-73
2022/05/08 05:06:01;;;;;;;2.27;2.27;;;23.10;56.70;;;;;;5033263;28;43971;-73
2022/05/08 05:08:29;;;;;;;2.20;2.20;;;23.10;56.70;;;;;;5047144;28;43884;-72
2022/05/08 05:10:57;;;;;;;1.93;1.93;;;23.10;56.70;;;;;;5049261;28;44061;-73
2022/05/08 05:13:25;;;;;;;2.20;2.20;;;23.10;56.60;;;;;;5048779;28;44002;-73
2022/05/08 05:15:53;;;;;;;2.10;2.10;;;23.10;56.60;;;;;;5048605;28;44067;-74
2022/05/08 05:18:22;;;;;;;2.00;2.00;;;23.10;56.60;;;;;;5047946;28;43909;-74
2022/05/08 05:20:50;;;;;;;2.10;2.10;;;23.20;56.60;;;;;;5048933;28;43942;-73
2022/05/08 05:23:18;;;;;;;2.20;2.20;;;23.20;56.40;;;;;;5030258;28;46043;-73
2022/05/08 05:25:46;;;;;;;2.30;2.30;;;23.20;56.40;;;;;;5048928;28;43413;-73
2022/05/08 05:28:14;;;;;;;2.10;2.10;;;23.20;57.00;;;;;;5049007;28;43952;-74
2022/05/08 05:30:42;;;;;;;1.80;1.80;;;23.20;56.30;;;;;;5030657;28;44012;-74
2022/05/08 05:33:15;;;;;;;2.10;2.10;;;23.20;56.20;;;;;;5048034;28;43908;-73
2022/05/08 05:35:45;;;;;;;1.87;1.87;;;23.20;56.30;;;;;;5047046;28;44300;-73
2022/05/08 05:38:13;;;;;;;2.10;2.10;;;23.20;56.20;;;;;;5048933;28;43354;-74
2022/05/08 05:40:41;;;;;;;1.90;1.90;;;23.20;56.20;;;;;;5030533;28;43580;-74
2022/05/08 05:43:09;;;;;;;2.20;2.20;;;23.20;56.20;;;;;;5048586;28;43755;-72
2022/05/08 05:45:36;;;;;;;1.90;1.90;;;23.30;56.20;;;;;;5048427;28;43945;-73
2022/05/08 05:48:04;;;;;;;2.10;2.10;;;23.30;56.10;;;;;;5029925;28;43514;-74
2022/05/08 05:50:33;;;;;;;1.90;1.90;;;23.30;56.20;;;;;;5047222;28;44082;-73
2022/05/08 05:53:03;;;;;;;2.17;2.17;;;23.30;56.10;;;;;;5048332;28;43949;-74
2022/05/08 05:55:31;;;;;;;1.93;1.93;;;23.30;56.10;;;;;;5048086;28;43423;-73
2022/05/08 05:58:04;;;;;;;2.17;2.17;;;23.30;56.10;;;;;;5048554;28;44044;-73
2022/05/08 06:00:32;;;;;;;1.83;1.83;;;23.30;56.00;;;;;;5030095;28;44056;-73
2022/05/08 06:03:00;;;;;;;1.90;1.90;;;23.30;56.00;;;;;;5048206;28;44068;-72
2022/05/08 06:05:28;;;;;;;1.90;1.90;;;23.30;56.10;;;;;;5048375;28;44147;-73
2022/05/08 06:07:56;;;;;;;1.90;1.90;;;23.30;56.10;;;;;;5048225;28;44063;-72
2022/05/08 06:10:26;;;;;;;2.03;2.03;;;23.30;56.10;;;;;;5030178;28;44023;-73
2022/05/08 06:12:54;;;;;;;1.80;1.80;;;23.30;56.00;;;;;;5047570;28;43928;-73
2022/05/08 06:15:24;;;;;;;1.73;1.73;;;23.30;56.00;;;;;;5029597;28;44880;-73
2022/05/08 06:17:52;;;;;;;2.03;1.90;;;23.30;56.00;;;;;;5046830;28;43803;-73
2022/05/08 06:20:20;;;;;;;1.83;1.83;;;23.30;56.00;;;;;;5046664;28;43964;-73
2022/05/08 06:22:48;;;;;;;2.00;2.00;;;23.30;55.90;;;;;;5047556;28;43945;-73
2022/05/08 06:25:16;;;;;;;1.80;1.80;;;23.30;56.00;;;;;;5047713;28;43448;-74
2022/05/08 06:27:45;;;;;;;1.83;1.83;;;23.40;55.90;;;;;;5047819;28;44027;-74
2022/05/08 06:30:14;;;;;;;1.90;1.90;;;23.40;55.90;;;;;;5048471;28;44030;-73
2022/05/08 06:32:41;;;;;;;2.10;2.10;;;23.40;55.90;;;;;;5047111;28;44048;-74
2022/05/08 06:35:31;;;;;;;1.73;1.73;;;23.40;55.90;;;;;;5047372;28;44017;-72
2022/05/08 06:37:59;;;;;;;1.90;1.90;;;23.40;55.90;;;;;;5047624;28;44307;-73
2022/05/08 06:40:29;;;;;;;1.97;1.97;;;23.40;55.90;;;;;;5047884;28;44095;-72
2022/05/08 06:42:58;;;;;;;1.80;1.80;;;23.40;55.80;;;;;;5029058;28;45456;-74
2022/05/08 06:45:26;;;;;;;2.13;2.13;;;23.40;55.80;;;;;;5047020;28;43972;-74
2022/05/08 06:47:55;;;;;;;2.03;2.03;;;23.40;55.90;;;;;;5047340;28;44013;-73
2022/05/08 06:50:23;;;;;;;1.80;1.80;;;23.40;55.80;;;;;;5047934;28;43440;-74
2022/05/08 06:52:51;;;;;;;1.90;1.90;;;23.40;55.80;;;;;;5047023;28;44005;-74
2022/05/08 06:55:21;;;;;;;2.10;2.10;;;23.40;55.80;;;;;;5045776;28;45820;-73
2022/05/08 06:57:49;;;;;;;1.87;1.87;;;23.40;55.90;;;;;;5047048;28;43501;-73
2022/05/08 07:03:05;;;;;;;2.00;2.00;;;23.40;55.80;;;;;;5047221;28;43850;-73
2022/05/08 07:05:36;;;;;;;1.90;1.90;;;23.40;55.80;;;;;;5047051;28;44037;-73
2022/05/08 07:08:04;;;;;;;2.00;2.00;;;23.40;55.80;;;;;;5047112;28;43964;-73
2022/05/08 07:10:32;;;;;;;2.00;2.00;;;23.40;55.70;;;;;;5029210;28;44311;-73
2022/05/08 07:13:00;;;;;;;2.07;1.97;;;23.40;55.80;;;;;;5047157;28;45106;-72
2022/05/08 07:15:29;;;;;;;2.00;2.00;;;23.40;55.70;;;;;;5046934;28;43993;-74
2022/05/08 07:18:18;;;;;;;1.90;1.90;;;23.40;55.70;;;;;;5042455;28;44012;-73
2022/05/08 07:20:46;;;;;;;1.90;1.90;;;23.40;55.70;;;;;;5046989;28;43823;-74
2022/05/08 07:23:17;;;;;;;2.00;2.00;;;23.40;55.70;;;;;;5046694;28;44257;-73
2022/05/08 07:25:47;;;;;;;2.03;2.03;;;23.40;55.60;;;;;;5046569;28;43996;-73
2022/05/08 07:28:15;;;;;;;2.00;2.00;;;23.50;55.70;;;;;;5046808;28;44092;-73
2022/05/08 07:30:44;;;;;;;1.80;1.80;;;23.40;55.60;;;;;;5028537;28;44097;-74
2022/05/08 07:33:16;;;;;;;1.70;1.70;;;23.40;55.70;;;;;;5032444;28;45661;-74
2022/05/08 07:38:32;;;;;;;1.83;1.83;;;23.40;55.80;;;;;;5046797;28;43655;-74
2022/05/08 07:41:01;;;;;;;1.80;1.80;;;23.40;55.80;;;;;;5047294;28;44178;-73
2022/05/08 07:43:31;;;;;;;2.07;2.07;;;23.40;55.80;;;;;;5028253;28;46488;-73
2022/05/08 07:46:06;;;;;;;1.90;1.90;;;23.40;55.80;;;;;;5040697;28;43487;-73
2022/05/08 07:48:37;;;;;;;1.90;1.90;;;23.40;55.80;;;;;;5046361;28;43997;-74
2022/05/08 07:51:05;;;;;;;1.80;1.80;;;23.40;55.90;;;;;;5046975;28;44005;-73
2022/05/08 07:53:34;;;;;;;1.80;1.80;;;23.40;55.90;;;;;;5046335;28;43953;-72
2022/05/08 07:56:02;;;;;;;1.83;1.83;;;23.40;55.90;;;;;;5046451;28;43941;-74
2022/05/08 07:58:31;;;;;;;1.70;1.70;;;23.40;55.90;;;;;;5046465;28;43361;-73
2022/05/08 08:01:01;;;;;;;1.80;1.80;;;23.40;55.90;;;;;;5045243;28;43420;-73
2022/05/08 08:03:32;;;;;;;1.90;1.90;;;23.40;56.00;;;;;;5043894;28;45644;-72
2022/05/08 08:06:00;;;;;;;2.10;2.00;;;23.40;56.00;;;;;;5028101;28;45013;-73
2022/05/08 08:08:38;;;;;;;1.63;1.63;;;23.30;55.90;;;;;;5046120;28;43913;-74
2022/05/08 08:11:06;;;;;;;1.83;1.83;;;23.40;56.00;;;;;;5046405;28;43655;-73
2022/05/08 08:13:34;;;;;;;1.67;1.67;;;23.30;56.00;;;;;;5045974;28;43745;-73
2022/05/08 08:16:06;;;;;;;1.73;1.73;;;23.40;56.10;;;;;;5046004;28;43333;-73
2022/05/08 08:18:39;;;;;;;1.90;1.90;;;23.30;56.00;;;;;;5046043;28;43961;-73
2022/05/08 08:21:11;;;;;;;1.70;1.70;;;23.30;56.00;;;;;;5046409;28;43361;-73
2022/05/08 08:23:39;;;;;;;1.80;1.80;;;23.30;56.00;;;;;;5045675;28;43981;-72
2022/05/08 08:26:08;;;;;;;1.60;1.60;;;23.30;56.10;;;;;;5046057;28;44028;-73
2022/05/08 08:28:36;;;;;;;1.60;1.60;;;23.30;56.10;;;;;;5046310;28;43808;-72
2022/05/08 08:31:05;;;;;;;1.60;1.60;;;23.30;56.20;;;;;;5046167;28;43960;-74
2022/05/08 08:33:33;;;;;;;1.83;1.83;;;23.30;56.20;;;;;;5027485;28;47113;-74
2022/05/08 08:36:02;;;;;;;1.60;1.60;;;23.30;56.30;;;;;;5027499;28;44302;-73
2022/05/08 08:38:31;;;;;;;1.40;1.40;;;23.30;56.20;;;;;;5046107;28;44380;-73
2022/05/08 08:41:02;;;;;;;1.63;1.63;;;23.30;56.30;;;;;;5047261;28;43764;-73
2022/05/08 08:43:30;;;;;;;1.60;1.60;;;23.20;56.30;;;;;;5048975;28;43972;-73
2022/05/08 08:48:46;;;;;;;1.70;1.70;;;23.20;56.30;;;;;;5049091;28;44037;-74
2022/05/08 08:51:15;;;;;;;1.70;1.70;;;23.20;56.50;;;;;;5031594;28;43445;-72
2022/05/08 08:53:43;;;;;;;1.70;1.70;;;23.20;56.50;;;;;;5048852;28;44180;-73
2022/05/08 08:56:11;;;;;;;1.60;1.60;;;23.20;56.50;;;;;;5049581;28;43409;-73
2022/05/08 08:58:39;;;;;;;1.70;1.70;;;23.20;56.60;;;;;;5049252;28;44015;-73
2022/05/08 09:01:07;;;;;;;1.70;1.70;;;23.20;56.50;;;;;;5031375;28;43922;-73
2022/05/08 09:03:35;;;;;;;1.47;1.47;;;23.20;56.60;;;;;;5048901;28;44699;-73
2022/05/08 09:06:06;;;;;;;1.60;1.60;;;23.20;56.50;;;;;;5034753;28;44647;-73
2022/05/08 09:08:35;;;;;;;1.50;1.50;;;23.20;56.60;;;;;;5049276;28;43929;-74
2022/05/08 09:11:06;;;;;;;1.80;1.70;;;23.20;56.50;;;;;;5047616;28;43403;-73
2022/05/08 09:13:35;;;;;;;1.70;1.70;;;23.20;56.60;;;;;;5048862;28;43973;-73
2022/05/08 09:16:04;;;;;;;1.60;1.60;;;23.10;56.40;;;;;;5049260;28;44052;-73
2022/05/08 09:18:42;;;;;;;1.60;1.60;;;23.20;56.70;;;;;;5048885;28;43903;-72
2022/05/08 09:24:09;;;;;;;1.57;1.57;;;23.10;56.70;;;;;;5035768;28;43855;-73
2022/05/08 09:26:37;;;;;;;1.50;1.50;;;23.10;56.80;;;;;;5048726;28;43824;-74
2022/05/08 09:29:05;;;;;;;1.70;1.70;;;23.10;56.80;;;;;;5048468;28;43929;-74
2022/05/08 09:31:40;;;;;;;1.43;1.43;;;23.00;56.80;;;;;;5048739;28;43465;-72
2022/05/08 09:34:14;;;;;;;1.50;1.50;;;23.00;56.90;;;;;;5047432;28;45393;-73
2022/05/08 09:36:43;;;;;;;1.60;1.60;;;23.00;56.90;;;;;;5030308;28;46062;-73
2022/05/08 09:39:13;;;;;;;1.77;1.77;;;23.00;57.00;;;;;;5048899;28;43412;-73
2022/05/08 09:41:42;;;;;;;1.60;1.60;;;23.00;57.10;;;;;;5049412;28;43468;-74
2022/05/08 09:44:13;;;;;;;1.50;1.50;;;22.90;57.10;;;;;;5046649;28;45804;-73
2022/05/08 09:46:44;;;;;;;1.40;1.40;;;22.90;57.10;;;;;;5048434;28;43997;-74
2022/05/08 09:49:14;;;;;;;1.50;1.50;;;22.90;57.20;;;;;;5049126;28;43985;-73
2022/05/08 09:51:42;;;;;;;1.50;1.50;;;22.90;57.20;;;;;;5036331;28;44044;-73
2022/05/08 09:54:11;;;;;;;1.50;1.50;;;22.90;57.30;;;;;;5048159;28;44151;-71
2022/05/08 09:56:42;;;;;;;1.50;1.50;;;22.90;57.40;;;;;;5048258;28;43501;-73
2022/05/08 09:59:11;;;;;;;1.40;1.40;;;22.80;57.40;;;;;;5042503;28;43677;-73
2022/05/08 10:01:39;;;;;;;1.70;1.70;;;22.80;57.50;;;;;;5048453;28;44020;-73
2022/05/08 10:04:07;;;;;;;1.40;1.40;;;22.80;58.20;;;;;;5030060;28;44170;-73
2022/05/08 10:06:36;;;;;;;1.50;1.50;;;22.70;57.50;;;;;;5048207;28;44059;-72
2022/05/08 10:14:37;;;;;;;1.70;1.70;;;22.70;57.80;;;;;;5047639;28;43997;-73
2022/05/08 10:17:06;;;;;;;1.53;1.53;;;22.70;57.90;;;;;;5047829;28;44080;-73
2022/05/08 10:19:55;;;;;;;1.70;1.70;;;22.70;57.90;;;;;;5047787;28;44056;-73
2022/05/08 10:22:24;;;;;;;1.40;1.40;;;22.60;57.90;;;;;;5025302;28;44034;-74
2022/05/08 10:24:57;;;;;;;1.60;1.60;;;22.60;57.90;;;;;;5029392;28;45802;-73
2022/05/08 10:27:29;;;;;;;1.60;1.60;;;22.60;57.90;;;;;;5047985;28;43465;-73
2022/05/08 10:30:33;;;;;;;1.50;1.50;;;22.60;57.90;;;;;;5029753;28;43541;-73
2022/05/08 10:33:01;;;;;;;1.33;1.33;;;22.60;58.00;;;;;;5030083;28;43987;-73
2022/05/08 10:35:30;;;;;;;1.40;1.40;;;22.60;58.10;;;;;;5047475;28;44012;-74
2022/05/08 10:38:20;;;;;;;1.50;1.50;;;22.60;58.00;;;;;;5047708;28;44040;-73
2022/05/08 10:40:49;;;;;;;1.50;1.50;;;22.60;58.00;;;;;;5047328;28;44053;-73
2022/05/08 10:43:32;;;;;;;2.03;1.73;;;22.60;58.00;;;;;;5048126;28;43293;-73
2022/05/08 10:46:22;;;;;;;1.50;1.40;;;22.60;58.10;;;;;;5041358;28;43937;-73
2022/05/08 10:48:51;;;;;;;1.63;1.53;;;22.50;58.10;;;;;;5039105;28;43894;-73
2022/05/08 10:51:19;;;;;;;1.60;1.43;;;22.50;58.20;;;;;;5029164;28;44048;-74
2022/05/08 10:53:47;;;;;;;1.57;1.57;;;22.50;58.30;;;;;;5045812;28;43852;-73
2022/05/08 10:56:15;;;;;;;2.67;1.53;;;22.50;58.40;;;;;;5047339;28;44968;-72
2022/05/08 10:58:53;;;;;;;1.40;1.40;;;22.40;58.40;;;;;;5047619;28;43954;-73
2022/05/08 11:01:23;;;;;;;1.43;1.43;;;22.40;58.40;;;;;;5047211;28;43970;-72
2022/05/08 11:03:51;;;;;;;1.33;1.33;;;22.40;58.40;;;;;;5047147;28;44074;-73
2022/05/08 11:06:20;;;;;;;1.43;1.43;;;22.40;58.50;;;;;;5047168;28;44453;-73
2022/05/08 11:08:48;;;;;;;1.60;1.60;;;22.40;58.40;;;;;;5047334;28;43873;-73
2022/05/08 11:11:16;;;;;;;1.47;1.47;;;22.40;58.60;;;;;;5043556;28;44026;-73
2022/05/08 11:13:46;;;;;;;1.87;1.77;;;22.40;58.60;;;;;;5029493;28;44016;-73
2022/05/08 11:16:37;;;;;;;1.60;1.60;;;22.30;58.60;;;;;;5047158;28;44170;-72
2022/05/08 11:19:06;;;;;;;1.70;1.60;;;22.30;58.70;;;;;;5035887;28;44088;-73
2022/05/08 11:21:34;;;;;;;3.30;1.60;;;22.30;58.80;;;;;;5028540;28;44057;-72
2022/05/08 11:24:03;;;;;;;1.80;1.70;;;22.30;58.80;;;;;;5047353;28;43817;-73
2022/05/08 11:26:32;;;;;;;1.87;1.80;;;22.20;58.70;;;;;;5046828;28;43874;-73
2022/05/08 11:29:01;;;;;;;1.50;1.50;;;22.20;59.00;;;;;;5045552;28;46214;-74
2022/05/08 11:31:30;;;;;;;1.60;1.60;;;22.20;59.00;;;;;;5046875;28;43962;-73
2022/05/08 11:36:45;;;;;;;1.70;1.70;;;22.10;59.00;;;;;;5045462;28;45047;-72
2022/05/08 11:39:14;;;;;;;1.87;1.70;;;22.10;58.90;;;;;;5028739;28;45113;-73
2022/05/08 11:41:45;;;;;;;1.90;1.70;;;21.90;59.30;;;;;;5046635;28;44050;-73
2022/05/08 11:44:23;;;;;;;1.60;1.60;;;21.70;59.80;;;;;;5047461;28;43405;-73
2022/05/08 11:46:54;;;;;;;1.90;1.90;;;21.50;60.50;;;;;;5040360;28;43927;-73
2022/05/08 11:49:22;;;;;;;2.00;1.90;;;21.40;61.10;;;;;;5046232;28;43960;-73
2022/05/08 11:51:51;;;;;;;1.83;1.70;;;21.30;61.80;;;;;;5028023;28;43443;-72
2022/05/08 11:54:21;;;;;;;2.00;1.90;;;21.20;62.00;;;;;;5047285;28;44088;-73
2022/05/08 11:56:51;;;;;;;1.60;1.60;;;21.10;62.50;;;;;;5046324;28;44197;-73
2022/05/08 11:59:20;;;;;;;2.00;1.90;;;20.90;62.70;;;;;;5044255;28;46324;-73
2022/05/08 12:01:49;;;;;;;2.10;2.00;;;20.90;63.00;;;;;;5046313;28;44096;-73
2022/05/08 12:04:26;;;;;;;2.03;1.90;;;20.90;63.20;;;;;;5047034;28;43346;-72
2022/05/08 12:06:58;;;;;;;2.10;2.10;;;20.80;63.20;;;;;;5046223;28;43977;-73
2022/05/08 12:09:27;;;;;;;1.97;1.90;;;20.80;63.00;;;;;;5046083;28;43475;-72
2022/05/08 12:11:55;;;;;;;1.73;1.53;;;20.70;63.60;;;;;;5028033;28;43886;-73
2022/05/08 12:14:30;;;;;;;1.80;1.70;;;20.70;63.70;;;;;;5046643;28;43913;-72
2022/05/08 12:17:02;;;;;;;1.93;1.83;;;20.70;63.00;;;;;;5027148;28;45891;-73
2022/05/08 12:19:31;;;;;;;2.03;1.93;;;20.70;62.90;;;;;;5045882;28;44327;-73
2022/05/08 12:21:59;;;;;;;2.00;1.90;;;20.80;62.80;;;;;;5046186;28;44033;-72
2022/05/08 12:24:27;;;;;;;1.90;1.90;;;21.00;62.30;;;;;;5044067;28;43922;-71
2022/05/08 12:26:55;;;;;;;1.80;1.80;;;21.30;61.60;;;;;;5046016;28;45119;-73
2022/05/08 12:29:24;;;;;;;3.93;1.77;;;21.60;60.90;;;;;;5045999;28;43939;-72
2022/05/08 12:31:52;;;;;;;1.90;1.80;;;21.80;60.00;;;;;;5027725;28;43982;-73
2022/05/08 12:34:20;;;;;;;1.97;1.87;;;22.10;59.30;;;;;;5046473;28;43925;-73
2022/05/08 12:36:50;;;;;;;2.63;2.00;;;22.40;58.70;;;;;;5027645;28;45660;-74
2022/05/08 12:39:19;;;;;;;2.10;1.97;;;22.60;58.20;;;;;;5045709;28;44000;-73
2022/05/08 12:41:47;;;;;;;1.97;1.87;;;22.70;57.80;;;;;;5045619;28;44071;-74
2022/05/08 12:44:15;;;;;;;2.00;1.90;;;22.90;57.50;;;;;;5046725;28;44418;-74
2022/05/08 12:46:43;;;;;;;2.20;2.10;;;22.90;57.20;;;;;;5027698;28;44207;-74
2022/05/08 12:49:13;;;;;;;2.00;1.90;;;23.00;57.20;;;;;;5027988;28;46263;-73
2022/05/08 12:51:41;;;;;;;1.90;1.90;;;23.00;57.20;;;;;;5039205;28;44395;-74
2022/05/08 12:54:10;;;;;;;1.63;1.63;;;23.00;57.10;;;;;;5021884;28;43599;-73
2022/05/08 12:56:38;;;;;;;1.60;1.60;;;23.00;56.90;;;;;;5039353;28;43947;-72
2022/05/08 13:01:53;;;;;;;1.77;1.77;;;23.10;56.80;;;;;;5040311;28;43476;-73
2022/05/08 13:04:21;;;;;;;1.90;1.87;;;23.20;56.60;;;;;;5046232;28;43903;-74
2022/05/08 13:06:49;;;;;;;1.60;1.60;;;23.20;56.30;;;;;;5045442;28;44022;-73
2022/05/08 13:09:19;;;;;;;1.70;1.70;;;23.20;56.30;;;;;;5045548;28;44102;-73
2022/05/08 13:11:48;;;;;;;1.60;1.60;;;23.30;56.20;;;;;;5045404;28;44003;-73
2022/05/08 13:14:16;;;;;;;1.70;1.70;;;23.40;56.10;;;;;;5046028;28;43969;-74
2022/05/08 13:16:44;;;;;;;1.73;1.73;;;23.40;55.90;;;;;;5045418;28;44017;-74
2022/05/08 13:19:12;;;;;;;1.53;1.53;;;23.40;55.90;;;;;;5045701;28;44042;-73
2022/05/08 13:21:40;;;;;;;1.80;1.80;;;23.40;55.80;;;;;;5027358;28;43953;-73
2022/05/08 13:24:08;;;;;;;1.70;1.70;;;23.40;56.00;;;;;;5027677;28;44035;-73
2022/05/08 13:26:40;;;;;;;1.83;1.73;;;23.40;56.00;;;;;;5045934;28;43959;-73